createdAt,value
2018-12-31T00:04:14.453Z,25.57
2018-12-31T00:09:19.546Z,37.73
2018-12-31T00:14:24.677Z,27.37
2018-12-31T00:19:39.840Z,28.23
2018-12-31T00:24:44.996Z,29.97
2018-12-31T00:29:50.189Z,27.57
2018-12-31T00:34:55.250Z,31.97
2018-12-31T00:40:02.434Z,33.37
2018-12-31T00:45:07.273Z,32.70
2018-12-31T00:50:12.396Z,32.60
2018-12-31T00:55:17.496Z,31.70
2018-12-31T01:00:22.810Z,29.60
2018-12-31T01:05:27.888Z,33.37
2018-12-31T01:10:32.974Z,33.60
2018-12-31T01:15:38.078Z,35.50
2018-12-31T01:20:43.124Z,32.77
2018-12-31T01:25:48.202Z,31.40
2018-12-31T01:30:53.603Z,32.27
2018-12-31T01:35:58.680Z,30.23
2018-12-31T01:41:03.735Z,31.87
2018-12-31T01:46:09.101Z,28.93
2018-12-31T01:51:14.197Z,30.00
2018-12-31T01:56:19.281Z,26.93
2018-12-31T02:01:24.741Z,25.33
2018-12-31T02:06:29.747Z,28.00
2018-12-31T02:11:34.807Z,22.40
2018-12-31T02:16:39.795Z,21.80
2018-12-31T02:21:49.952Z,23.33
2018-12-31T02:26:55.305Z,25.17
2018-12-31T02:32:00.371Z,25.67
2018-12-31T02:37:05.376Z,26.83
2018-12-31T02:42:10.551Z,35.30
2018-12-31T02:47:15.593Z,29.50
2018-12-31T02:52:20.598Z,31.57
2018-12-31T02:57:25.643Z,29.17
2018-12-31T03:02:30.686Z,29.97
2018-12-31T03:07:35.732Z,33.93
2018-12-31T03:12:40.898Z,34.77
2018-12-31T03:17:45.907Z,31.13
2018-12-31T03:22:51.035Z,33.90
2018-12-31T03:27:56.409Z,34.90
2018-12-31T03:33:02.081Z,37.40
2018-12-31T03:38:07.149Z,37.90
2018-12-31T03:43:12.709Z,41.47
2018-12-31T03:48:18.020Z,35.90
2018-12-31T03:53:23.017Z,35.30
2018-12-31T03:58:28.012Z,36.57
2018-12-31T04:03:33.014Z,35.63
2018-12-31T04:08:38.492Z,34.67
2018-12-31T04:13:43.592Z,41.67
2018-12-31T04:18:48.637Z,39.07
2018-12-31T04:23:54.633Z,39.50
2018-12-31T04:29:00.244Z,44.50
2018-12-31T04:34:05.289Z,38.27
2018-12-31T04:39:10.312Z,48.53
2018-12-31T04:44:15.430Z,48.40
2018-12-31T04:49:23.823Z,44.23
2018-12-31T04:54:28.953Z,47.03
2018-12-31T04:59:42.024Z,41.90
2018-12-31T05:04:51.681Z,37.23
2018-12-31T05:09:56.851Z,36.47
2018-12-31T05:15:02.581Z,42.67
2018-12-31T05:20:07.702Z,36.97
2018-12-31T05:25:12.717Z,32.60
2018-12-31T05:30:17.754Z,37.30
2018-12-31T05:35:23.208Z,38.13
2018-12-31T05:40:28.358Z,39.17
2018-12-31T05:45:33.411Z,44.17
2018-12-31T05:50:38.521Z,34.30
2018-12-31T05:55:43.639Z,34.23
2018-12-31T06:00:49.018Z,37.83
2018-12-31T06:05:54.138Z,37.40
2018-12-31T06:10:59.539Z,41.10
2018-12-31T06:16:04.598Z,40.83
2018-12-31T06:21:09.836Z,47.70
2018-12-31T06:26:14.978Z,45.57
2018-12-31T06:31:20.468Z,46.97
2018-12-31T06:36:25.470Z,46.30
2018-12-31T06:41:30.472Z,50.23
2018-12-31T06:46:35.474Z,42.90
2018-12-31T06:51:40.581Z,47.60
2018-12-31T06:56:46.000Z,48.07
2018-12-31T07:01:51.918Z,42.00
2018-12-31T07:06:56.941Z,36.80
2018-12-31T07:12:01.947Z,42.20
2018-12-31T07:17:07.120Z,46.87
2018-12-31T07:22:12.441Z,46.00
2018-12-31T07:27:17.418Z,45.50
2018-12-31T07:32:22.485Z,49.43
2018-12-31T07:37:27.576Z,39.27
2018-12-31T07:42:32.815Z,40.57
2018-12-31T07:47:37.877Z,41.57
2018-12-31T07:52:43.187Z,42.50
2018-12-31T07:57:48.208Z,33.10
2018-12-31T08:02:53.247Z,36.37
2018-12-31T08:07:58.313Z,39.57
2018-12-31T08:13:03.375Z,38.27
2018-12-31T08:18:08.563Z,41.40
2018-12-31T08:23:13.634Z,45.97
2018-12-31T08:28:18.719Z,43.57
2018-12-31T08:33:23.776Z,41.63
2018-12-31T08:38:28.787Z,42.03
2018-12-31T08:43:33.946Z,42.17
2018-12-31T08:48:39.067Z,41.47
2018-12-31T08:53:44.575Z,39.67
2018-12-31T08:58:49.619Z,39.50
2018-12-31T09:03:54.619Z,34.70
2018-12-31T09:08:59.752Z,38.60
2018-12-31T09:14:04.969Z,40.70
2018-12-31T09:19:10.856Z,37.27
2018-12-31T09:24:15.867Z,43.73
2018-12-31T09:29:26.039Z,41.53
2018-12-31T09:34:31.394Z,48.00
2018-12-31T09:39:42.055Z,42.97
2018-12-31T09:44:47.077Z,45.87
2018-12-31T09:49:52.071Z,44.03
2018-12-31T09:54:57.119Z,43.80
2018-12-31T10:00:02.452Z,39.70
2018-12-31T10:05:07.672Z,44.53
2018-12-31T10:10:12.795Z,41.93
2018-12-31T10:15:17.953Z,42.20
2018-12-31T10:20:23.227Z,44.70
2018-12-31T10:25:28.721Z,36.23
2018-12-31T10:30:45.894Z,37.33
2018-12-31T10:35:51.053Z,39.13
2018-12-31T10:40:56.223Z,36.83
2018-12-31T10:46:01.487Z,38.07
2018-12-31T10:51:07.041Z,97.33
2018-12-31T10:56:12.176Z,39.83
2018-12-31T11:01:20.325Z,35.80
2018-12-31T11:06:26.399Z,36.97
2018-12-31T11:11:31.551Z,38.93
2018-12-31T11:16:36.761Z,40.07
2018-12-31T11:21:42.644Z,39.73
2018-12-31T11:26:50.894Z,38.20
2018-12-31T11:31:56.601Z,38.07
2018-12-31T11:37:01.863Z,40.07
2018-12-31T11:42:07.073Z,38.80
2018-12-31T11:47:12.659Z,38.03
2018-12-31T11:52:19.138Z,37.83
2018-12-31T11:57:24.377Z,38.67
2018-12-31T12:02:29.767Z,36.63
2018-12-31T12:07:34.977Z,36.97
2018-12-31T12:12:40.347Z,37.47
2018-12-31T12:17:45.701Z,36.97
2018-12-31T12:22:51.193Z,43.17
2018-12-31T12:27:56.237Z,38.97
2018-12-31T12:33:01.633Z,33.87
2018-12-31T12:38:06.754Z,40.93
2018-12-31T12:43:12.079Z,42.97
2018-12-31T12:48:17.146Z,34.07
2018-12-31T12:53:22.341Z,32.80
2018-12-31T12:58:27.581Z,33.17
2018-12-31T13:03:32.742Z,32.67
2018-12-31T13:08:37.873Z,33.07
2018-12-31T13:13:42.885Z,31.57
2018-12-31T13:18:48.021Z,37.60
2018-12-31T13:23:53.171Z,33.03
2018-12-31T13:28:58.356Z,38.23
2018-12-31T13:34:03.577Z,44.87
2018-12-31T13:39:08.701Z,36.70
2018-12-31T13:44:13.738Z,42.83
2018-12-31T13:49:18.814Z,43.17
2018-12-31T13:54:24.939Z,47.00
2018-12-31T13:59:30.137Z,47.67
2018-12-31T14:04:35.241Z,49.13
2018-12-31T14:09:41.156Z,47.60
2018-12-31T14:14:46.248Z,45.93
2018-12-31T14:19:51.394Z,48.43
2018-12-31T14:24:56.501Z,50.80
2018-12-31T14:30:02.987Z,44.13
2018-12-31T14:35:08.269Z,50.67
2018-12-31T14:40:13.386Z,51.00
2018-12-31T14:45:18.680Z,44.30
2018-12-31T14:50:24.230Z,54.53
2018-12-31T14:55:29.463Z,49.90
2018-12-31T15:00:35.351Z,49.70
2018-12-31T15:05:40.439Z,42.70
2018-12-31T15:10:45.491Z,43.03
2018-12-31T15:15:50.809Z,41.13
2018-12-31T15:20:55.975Z,48.10
2018-12-31T15:26:01.128Z,42.47
2018-12-31T15:31:07.411Z,47.37
2018-12-31T15:36:12.593Z,48.53
2018-12-31T15:41:17.723Z,46.80
2018-12-31T15:46:22.827Z,45.70
2018-12-31T15:51:27.921Z,44.67
2018-12-31T15:56:33.086Z,45.83
2018-12-31T16:01:38.262Z,43.97
2018-12-31T16:06:43.585Z,43.43
2018-12-31T16:11:48.815Z,49.00
2018-12-31T16:16:54.105Z,50.30
2018-12-31T16:21:59.213Z,54.83
2018-12-31T16:27:04.347Z,48.90
2018-12-31T16:32:09.533Z,47.60
2018-12-31T16:37:14.995Z,138.47
2018-12-31T16:42:20.334Z,55.97
2018-12-31T16:47:26.411Z,51.50
2018-12-31T16:52:31.661Z,71.83
2018-12-31T16:57:36.827Z,63.33
2018-12-31T17:02:41.921Z,65.03
2018-12-31T17:07:48.813Z,65.23
2018-12-31T17:12:54.134Z,59.60
2018-12-31T17:17:59.591Z,62.63
2018-12-31T17:23:05.466Z,62.03
2018-12-31T17:28:22.141Z,60.23
2018-12-31T17:33:29.175Z,62.00
2018-12-31T17:38:34.728Z,61.77
2018-12-31T17:43:42.713Z,71.97
2018-12-31T17:48:55.897Z,89.67
2018-12-31T17:54:01.319Z,63.40
2018-12-31T17:59:06.614Z,57.57
2018-12-31T18:04:11.995Z,53.77
2018-12-31T18:09:17.055Z,51.87
2018-12-31T18:14:22.354Z,59.67
2018-12-31T18:19:27.403Z,52.70
2018-12-31T18:24:33.229Z,61.57
2018-12-31T18:29:38.611Z,62.80
2018-12-31T18:34:43.697Z,59.30
2018-12-31T18:39:49.636Z,50.30
2018-12-31T18:44:55.088Z,45.80
2018-12-31T18:50:05.921Z,51.77
2018-12-31T18:55:11.888Z,65.23
2018-12-31T19:00:17.941Z,62.07
2018-12-31T19:05:23.081Z,49.93
2018-12-31T19:10:29.417Z,46.77
2018-12-31T19:15:34.856Z,73.63
2018-12-31T19:20:39.930Z,87.53
2018-12-31T19:25:45.192Z,89.70
2018-12-31T19:30:53.239Z,78.33
2018-12-31T19:35:59.043Z,82.60
2018-12-31T19:41:04.122Z,144.80
2018-12-31T19:46:09.273Z,115.57
2018-12-31T19:51:14.562Z,119.33
2018-12-31T19:56:19.811Z,75.03
2018-12-31T20:01:25.190Z,79.67
2018-12-31T20:06:30.212Z,85.00
2018-12-31T20:11:35.501Z,90.87
2018-12-31T20:16:40.594Z,98.83
2018-12-31T20:21:46.111Z,105.33
2018-12-31T20:26:51.317Z,105.53
2018-12-31T20:31:58.770Z,95.23
2018-12-31T20:37:07.259Z,96.60
2018-12-31T20:42:13.170Z,86.57
2018-12-31T20:47:20.229Z,92.43
2018-12-31T20:52:26.133Z,78.57
2018-12-31T20:57:31.347Z,65.03
2018-12-31T21:02:36.515Z,59.73
2018-12-31T21:07:43.851Z,56.87
2018-12-31T21:12:51.039Z,53.03
2018-12-31T21:17:56.535Z,60.30
2018-12-31T21:23:01.891Z,66.20
2018-12-31T21:28:07.059Z,66.60
2018-12-31T21:33:12.198Z,61.70
2018-12-31T21:38:17.346Z,63.17
2018-12-31T21:43:22.523Z,62.63
2018-12-31T21:48:27.709Z,65.13
2018-12-31T21:53:33.635Z,62.73
2018-12-31T21:58:52.041Z,57.07
2018-12-31T22:03:58.227Z,49.77
2018-12-31T22:09:03.487Z,50.27
2018-12-31T22:14:09.690Z,44.97
2018-12-31T22:19:15.032Z,46.43
2018-12-31T22:24:20.107Z,47.70
2018-12-31T22:29:25.148Z,41.23
2018-12-31T22:34:30.206Z,45.87
2018-12-31T22:39:40.226Z,45.43
2018-12-31T22:44:45.708Z,42.03
2018-12-31T22:49:50.971Z,42.10
2018-12-31T22:54:56.064Z,41.83
2018-12-31T23:00:01.320Z,45.67
2018-12-31T23:05:16.414Z,101.70
2018-12-31T23:10:21.537Z,96.37
2018-12-31T23:15:28.383Z,254.10
2018-12-31T23:20:33.689Z,325.07
2018-12-31T23:25:39.207Z,309.83
2018-12-31T23:30:44.634Z,323.87
2018-12-31T23:35:50.286Z,322.97
2018-12-31T23:40:55.751Z,279.60
2018-12-31T23:46:01.257Z,235.80
2018-12-31T23:51:06.465Z,198.63
2018-12-31T23:56:11.775Z,175.77
